createdAt,value
2022-08-17T00:04:01.816Z,20.15
2022-08-17T00:06:31.718Z,21.60
2022-08-17T00:09:04.324Z,21.10
2022-08-17T00:11:35.288Z,23.50
2022-08-17T00:14:08.406Z,18.98
2022-08-17T00:16:56.572Z,18.40
2022-08-17T00:19:29.975Z,20.65
2022-08-17T00:22:33.077Z,17.83
2022-08-17T00:24:48.383Z,19.60
2022-08-17T00:27:17.279Z,17.92
2022-08-17T00:29:47.833Z,18.98
2022-08-17T00:33:13.838Z,18.40
2022-08-17T00:35:06.916Z,20.25
2022-08-17T00:37:34.429Z,18.40
2022-08-17T00:40:01.933Z,19.48
2022-08-17T00:42:31.293Z,17.95
2022-08-17T00:44:59.534Z,20.87
2022-08-17T00:47:27.099Z,18.05
2022-08-17T00:49:54.485Z,17.90
2022-08-17T00:52:27.715Z,17.10
2022-08-17T00:54:55.885Z,16.27
2022-08-17T00:57:33.369Z,17.08
2022-08-17T01:00:09.546Z,18.52
2022-08-17T01:02:42.997Z,17.20
2022-08-17T01:05:19.955Z,15.82
2022-08-17T01:07:51.138Z,16.13
2022-08-17T01:10:57.116Z,15.70
2022-08-17T01:13:13.113Z,16.88
2022-08-17T01:16:07.102Z,19.80
2022-08-17T01:18:35.730Z,18.83
2022-08-17T01:21:26.507Z,18.40
2022-08-17T01:23:54.029Z,17.25
2022-08-17T01:26:23.165Z,18.65
2022-08-17T01:28:53.625Z,16.77
2022-08-17T01:31:28.020Z,19.67
2022-08-17T01:34:01.783Z,19.45
2022-08-17T01:36:29.983Z,17.55
2022-08-17T01:38:57.510Z,18.52
2022-08-17T01:41:25.104Z,18.88
2022-08-17T01:44:01.833Z,18.40
2022-08-17T01:46:33.745Z,18.83
2022-08-17T01:49:01.777Z,20.25
2022-08-17T01:51:33.838Z,18.95
2022-08-17T01:54:06.085Z,17.70
2022-08-17T01:56:37.453Z,18.27
2022-08-17T01:59:05.273Z,17.90
2022-08-17T02:01:34.946Z,19.63
2022-08-17T02:04:05.320Z,19.25
2022-08-17T02:06:45.183Z,18.83
2022-08-17T02:09:26.281Z,17.20
2022-08-17T02:12:37.350Z,19.30
2022-08-17T02:14:48.274Z,18.73
2022-08-17T02:17:16.558Z,18.00
2022-08-17T02:19:43.970Z,18.60
2022-08-17T02:22:12.625Z,21.42
2022-08-17T02:24:58.289Z,20.60
2022-08-17T02:27:28.965Z,19.27
2022-08-17T02:29:56.285Z,19.95
2022-08-17T02:32:28.040Z,20.73
2022-08-17T02:34:57.652Z,19.05
2022-08-17T02:37:26.708Z,18.60
2022-08-17T02:39:58.478Z,19.50
2022-08-17T02:42:35.441Z,20.05
2022-08-17T02:45:06.567Z,18.55
2022-08-17T02:47:35.074Z,19.23
2022-08-17T02:50:03.375Z,20.55
2022-08-17T02:52:42.294Z,19.95
2022-08-17T02:55:27.653Z,19.73
2022-08-17T02:57:55.581Z,19.42
2022-08-17T03:00:35.665Z,20.98
2022-08-17T03:03:05.747Z,21.55
2022-08-17T03:05:35.758Z,22.05
2022-08-17T03:08:04.120Z,23.02
2022-08-17T03:10:34.873Z,23.15
2022-08-17T03:13:02.658Z,24.55
2022-08-17T03:15:33.813Z,23.92
2022-08-17T03:18:03.017Z,26.33
2022-08-17T03:20:32.719Z,25.52
2022-08-17T03:23:01.917Z,25.63
2022-08-17T03:25:35.684Z,26.15
2022-08-17T03:28:05.503Z,27.70
2022-08-17T03:30:34.860Z,27.52
2022-08-17T03:33:06.838Z,28.15
2022-08-17T03:35:40.604Z,27.48
2022-08-17T03:38:10.871Z,27.60
2022-08-17T03:40:58.020Z,28.13
2022-08-17T03:43:31.324Z,26.80
2022-08-17T03:46:28.486Z,27.50
2022-08-17T03:49:23.198Z,27.08
2022-08-17T03:52:09.675Z,26.67
2022-08-17T03:54:55.833Z,28.02
2022-08-17T03:57:24.591Z,27.60
2022-08-17T03:59:53.494Z,27.80
2022-08-17T04:02:27.112Z,28.20
2022-08-17T04:04:55.100Z,28.48
2022-08-17T04:07:28.138Z,27.08
2022-08-17T04:09:55.693Z,26.50
2022-08-17T04:12:25.232Z,27.20
2022-08-17T04:14:54.956Z,27.42
2022-08-17T04:17:29.630Z,25.23
2022-08-17T04:19:57.486Z,26.00
2022-08-17T04:22:33.070Z,27.90
2022-08-17T04:25:20.367Z,26.90
2022-08-17T04:27:49.061Z,26.88
2022-08-17T04:30:17.130Z,27.38
2022-08-17T04:33:08.992Z,27.23
2022-08-17T04:35:43.503Z,28.13
2022-08-17T04:38:17.179Z,30.02
2022-08-17T04:41:03.196Z,27.70
2022-08-17T04:43:34.621Z,28.52
2022-08-17T04:46:05.528Z,27.35
2022-08-17T04:48:37.571Z,28.98
2022-08-17T04:51:10.205Z,28.20
2022-08-17T04:53:40.134Z,28.30
2022-08-17T04:56:11.680Z,27.48
2022-08-17T04:58:46.477Z,27.70
2022-08-17T05:01:16.908Z,29.23
2022-08-17T05:03:52.270Z,28.13
2022-08-17T05:06:20.213Z,31.75
2022-08-17T05:08:47.824Z,34.88
2022-08-17T05:11:18.515Z,33.90
2022-08-17T05:13:50.269Z,32.33
2022-08-17T05:16:20.308Z,32.50
2022-08-17T05:18:48.738Z,30.52
2022-08-17T05:21:17.163Z,29.05
2022-08-17T05:23:54.896Z,30.02
2022-08-17T05:26:26.945Z,31.67
2022-08-17T05:29:00.558Z,32.03
2022-08-17T05:31:31.041Z,32.30
2022-08-17T05:33:58.461Z,31.90
2022-08-17T05:36:42.691Z,29.00
2022-08-17T05:39:16.451Z,27.48
2022-08-17T05:41:48.736Z,23.92
2022-08-17T05:44:17.225Z,25.70
2022-08-17T05:46:51.363Z,26.63
2022-08-17T05:49:27.335Z,25.98
2022-08-17T05:52:21.156Z,26.30
2022-08-17T05:55:00.136Z,25.58
2022-08-17T05:57:53.833Z,22.50
2022-08-17T06:00:30.032Z,24.27
2022-08-17T06:03:10.072Z,22.27
2022-08-17T06:05:46.666Z,25.50
2022-08-17T06:08:32.536Z,22.50
2022-08-17T06:11:39.354Z,22.83
2022-08-17T06:14:38.855Z,20.25
2022-08-17T06:17:14.114Z,20.90
2022-08-17T06:20:00.439Z,20.83
2022-08-17T06:22:33.660Z,23.88
2022-08-17T06:25:10.238Z,22.23
2022-08-17T06:27:45.311Z,21.75
2022-08-17T06:30:27.541Z,22.42
2022-08-17T06:33:02.477Z,21.33
2022-08-17T06:35:38.103Z,22.40
2022-08-17T06:38:38.238Z,21.65
2022-08-17T06:41:15.368Z,19.48
2022-08-17T06:43:48.023Z,22.60
2022-08-17T06:46:30.907Z,20.50
2022-08-17T06:49:12.059Z,20.58
2022-08-17T06:51:50.795Z,20.23
2022-08-17T06:54:46.256Z,21.70
2022-08-17T06:57:30.701Z,22.60
2022-08-17T07:00:07.729Z,23.35
2022-08-17T07:03:07.089Z,19.98
2022-08-17T07:05:37.393Z,20.42
2022-08-17T07:08:17.223Z,22.27
2022-08-17T07:10:56.060Z,23.50
2022-08-17T07:13:29.630Z,21.90
2022-08-17T07:16:20.568Z,22.70
2022-08-17T07:18:51.149Z,20.33
2022-08-17T07:21:38.790Z,22.33
2022-08-17T07:24:29.268Z,21.80
2022-08-17T07:27:27.728Z,21.25
2022-08-17T07:30:11.207Z,21.38
2022-08-17T07:32:48.481Z,18.33
2022-08-17T07:35:23.361Z,17.73
2022-08-17T07:38:25.664Z,19.33
2022-08-17T07:40:58.137Z,18.73
2022-08-17T07:43:29.715Z,19.20
2022-08-17T07:46:40.512Z,18.13
2022-08-17T07:49:15.344Z,19.02
2022-08-17T07:51:47.240Z,17.95
2022-08-17T07:54:23.907Z,18.30
2022-08-17T07:56:55.820Z,17.85
2022-08-17T07:59:24.942Z,20.63
2022-08-17T08:01:58.321Z,22.20
2022-08-17T08:07:29.203Z,22.48
2022-08-17T08:10:01.483Z,23.67
2022-08-17T08:12:45.889Z,22.15
2022-08-17T08:15:19.685Z,25.52
2022-08-17T08:17:54.335Z,23.92
2022-08-17T08:20:55.034Z,24.63
2022-08-17T08:23:31.347Z,25.33
2022-08-17T08:26:18.792Z,24.70
2022-08-17T08:29:10.540Z,24.27
2022-08-17T08:32:04.130Z,25.60
2022-08-17T08:35:08.368Z,27.70
2022-08-17T08:38:26.005Z,29.90
2022-08-17T08:41:25.498Z,32.72
2022-08-17T08:44:22.300Z,31.80
2022-08-17T08:47:35.554Z,34.58
2022-08-17T08:50:36.921Z,35.15
2022-08-17T08:53:11.241Z,33.60
2022-08-17T08:55:46.582Z,32.60
2022-08-17T08:58:41.291Z,34.33
2022-08-17T09:01:31.618Z,36.97
2022-08-17T09:04:24.669Z,34.33
2022-08-17T09:07:28.888Z,34.80
2022-08-17T09:10:12.037Z,40.28
2022-08-17T09:13:05.970Z,39.70
2022-08-17T09:15:49.714Z,39.65
2022-08-17T09:19:01.610Z,39.97
2022-08-17T09:21:47.888Z,41.08
2022-08-17T09:24:34.598Z,41.75
2022-08-17T09:27:25.809Z,40.28
2022-08-17T09:30:00.093Z,39.50
2022-08-17T09:32:41.519Z,42.35
2022-08-17T09:35:37.062Z,41.35
2022-08-17T09:38:25.068Z,40.22
2022-08-17T09:41:23.752Z,41.55
2022-08-17T09:43:56.745Z,40.00
2022-08-17T09:46:38.804Z,38.42
2022-08-17T09:49:30.326Z,40.15
2022-08-17T09:52:25.398Z,38.70
2022-08-17T09:54:55.758Z,38.17
2022-08-17T10:00:21.615Z,36.00
2022-08-17T10:02:55.283Z,37.25
2022-08-17T10:05:40.460Z,36.38
2022-08-17T10:08:23.151Z,35.50
2022-08-17T10:11:19.369Z,36.97
2022-08-17T10:14:36.039Z,35.75
2022-08-17T10:17:34.324Z,37.40
2022-08-17T10:20:04.512Z,36.65
2022-08-17T10:23:08.875Z,36.17
2022-08-17T10:25:59.803Z,38.10
2022-08-17T10:28:32.860Z,36.22
2022-08-17T10:31:33.218Z,37.58
2022-08-17T10:34:04.625Z,38.17
2022-08-17T10:36:56.328Z,38.25
2022-08-17T10:39:52.032Z,38.85
2022-08-17T10:42:33.012Z,41.00
2022-08-17T10:45:26.488Z,37.40
2022-08-17T10:48:06.388Z,36.17
2022-08-17T10:50:58.608Z,39.03
2022-08-17T10:53:32.449Z,33.92
2022-08-17T10:56:16.406Z,35.17
2022-08-17T10:58:55.793Z,35.83
2022-08-17T11:01:38.290Z,34.90
2022-08-17T11:04:24.314Z,36.03
2022-08-17T11:07:06.456Z,34.58
2022-08-17T11:09:55.262Z,34.17
2022-08-17T11:12:42.235Z,34.97
2022-08-17T11:15:50.666Z,35.53
2022-08-17T11:18:39.542Z,34.83
2022-08-17T11:21:52.113Z,32.95
2022-08-17T11:24:44.834Z,35.20
2022-08-17T11:27:35.110Z,36.90
2022-08-17T11:30:16.660Z,35.13
2022-08-17T11:32:54.539Z,37.30
2022-08-17T11:35:22.503Z,38.25
2022-08-17T11:38:16.257Z,35.72
2022-08-17T11:41:18.078Z,36.25
2022-08-17T11:44:16.531Z,34.85
2022-08-17T11:47:30.745Z,36.42
2022-08-17T11:50:36.957Z,38.72
2022-08-17T11:53:05.492Z,37.35
2022-08-17T11:55:39.568Z,35.22
2022-08-17T11:58:31.039Z,37.95
2022-08-17T12:01:13.640Z,38.15
2022-08-17T12:03:55.385Z,36.80
2022-08-17T12:06:43.641Z,37.10
2022-08-17T12:09:30.897Z,37.75
2022-08-17T12:12:14.468Z,37.92
2022-08-17T12:17:40.577Z,36.55
2022-08-17T12:20:33.578Z,38.63
2022-08-17T12:23:15.334Z,37.85
2022-08-17T12:25:59.243Z,35.47
2022-08-17T12:28:30.073Z,35.10
2022-08-17T12:31:16.423Z,33.40
2022-08-17T12:33:47.483Z,33.72
2022-08-17T12:36:22.451Z,33.88
2022-08-17T12:38:51.367Z,34.35
2022-08-17T12:41:50.788Z,35.08
2022-08-17T12:44:23.602Z,34.03
2022-08-17T12:47:21.021Z,33.50
2022-08-17T12:50:04.050Z,35.42
2022-08-17T12:52:33.163Z,31.95
2022-08-17T12:55:08.762Z,31.98
2022-08-17T12:57:39.186Z,31.10
2022-08-17T13:00:30.743Z,32.90
2022-08-17T13:03:22.635Z,32.33
2022-08-17T13:05:52.851Z,32.90
2022-08-17T13:08:28.192Z,30.67
2022-08-17T13:11:00.873Z,30.95
2022-08-17T13:13:31.990Z,31.10
2022-08-17T13:16:03.439Z,30.85
2022-08-17T13:18:37.065Z,28.85
2022-08-17T13:21:05.621Z,28.98
2022-08-17T13:23:34.739Z,27.88
2022-08-17T13:26:07.064Z,29.38
2022-08-17T13:28:36.908Z,26.90
2022-08-17T13:31:28.708Z,28.42
2022-08-17T13:34:41.133Z,29.80
2022-08-17T13:37:29.305Z,29.80
2022-08-17T13:40:13.327Z,29.27
2022-08-17T13:42:53.558Z,29.73
2022-08-17T13:45:36.605Z,30.48
2022-08-17T13:48:34.774Z,28.88
2022-08-17T13:51:07.385Z,28.48
2022-08-17T13:53:52.810Z,28.20
2022-08-17T13:56:40.749Z,28.67
2022-08-17T13:59:12.840Z,30.40
2022-08-17T14:01:54.086Z,32.13
2022-08-17T14:04:28.810Z,31.80
2022-08-17T14:07:01.518Z,29.88
2022-08-17T14:09:41.911Z,28.95
2022-08-17T14:14:40.825Z,31.13
2022-08-17T14:17:08.193Z,30.45
2022-08-17T14:19:36.225Z,31.45
2022-08-17T14:22:05.204Z,30.42
2022-08-17T14:24:41.161Z,32.83
2022-08-17T14:27:12.302Z,31.50
2022-08-17T14:29:41.410Z,33.20
2022-08-17T14:32:20.261Z,34.28
2022-08-17T14:34:50.440Z,31.92
2022-08-17T14:37:19.653Z,32.55
2022-08-17T14:39:47.500Z,32.75
2022-08-17T14:42:16.246Z,32.63
2022-08-17T14:44:43.514Z,34.47
2022-08-17T14:47:15.928Z,33.78
2022-08-17T14:49:43.893Z,33.78
2022-08-17T14:52:22.529Z,33.90
2022-08-17T14:54:52.022Z,32.78
2022-08-17T14:57:33.156Z,36.13
2022-08-17T15:00:02.769Z,31.98
2022-08-17T15:02:31.051Z,34.55
2022-08-17T15:05:04.503Z,33.53
2022-08-17T15:07:31.889Z,34.65
2022-08-17T15:10:01.903Z,33.28
2022-08-17T15:12:33.559Z,35.38
2022-08-17T15:15:05.682Z,33.17
2022-08-17T15:17:44.468Z,32.80
2022-08-17T15:20:18.627Z,33.55
2022-08-17T15:23:07.313Z,33.28
2022-08-17T15:25:34.819Z,31.10
2022-08-17T15:28:04.777Z,34.55
2022-08-17T15:30:35.592Z,33.40
2022-08-17T15:33:04.167Z,32.72
2022-08-17T15:35:34.040Z,32.47
2022-08-17T15:38:10.176Z,35.03
2022-08-17T15:40:46.276Z,34.03
2022-08-17T15:43:26.674Z,34.78
2022-08-17T15:46:19.067Z,34.03
2022-08-17T15:48:49.876Z,34.42
2022-08-17T15:51:26.105Z,33.72
2022-08-17T15:53:59.731Z,34.75
2022-08-17T15:56:32.208Z,34.72
2022-08-17T15:59:00.031Z,32.22
2022-08-17T16:04:06.624Z,33.90
2022-08-17T16:06:34.931Z,34.15
2022-08-17T16:09:02.503Z,35.33
2022-08-17T16:11:29.848Z,34.05
2022-08-17T16:13:59.456Z,35.60
2022-08-17T16:16:29.295Z,31.90
2022-08-17T16:18:58.502Z,35.88
2022-08-17T16:21:27.217Z,38.97
2022-08-17T16:24:01.511Z,39.03
2022-08-17T16:26:30.793Z,39.45
2022-08-17T16:29:00.458Z,43.33
2022-08-17T16:31:29.781Z,45.28
2022-08-17T16:34:15.858Z,46.33
2022-08-17T16:36:55.332Z,47.78
2022-08-17T16:39:29.018Z,47.17
2022-08-17T16:41:57.223Z,48.38
2022-08-17T16:44:26.907Z,47.65
2022-08-17T16:46:54.075Z,48.25
2022-08-17T16:49:35.865Z,49.55
2022-08-17T16:52:11.818Z,48.58
2022-08-17T16:54:44.095Z,46.55
2022-08-17T16:57:17.594Z,45.92
2022-08-17T16:59:50.331Z,46.70
2022-08-17T17:02:26.498Z,47.55
2022-08-17T17:05:03.371Z,46.58
2022-08-17T17:07:51.147Z,47.53
2022-08-17T17:10:24.474Z,48.03
2022-08-17T17:13:03.014Z,48.92
2022-08-17T17:15:50.679Z,47.97
2022-08-17T17:18:20.859Z,49.92
2022-08-17T17:20:57.518Z,49.13
2022-08-17T17:23:47.260Z,50.15
2022-08-17T17:26:41.587Z,50.07
2022-08-17T17:29:33.979Z,50.60
2022-08-17T17:32:39.121Z,51.50
2022-08-17T17:35:12.421Z,48.90
2022-08-17T17:37:43.281Z,46.60
2022-08-17T17:40:25.272Z,46.55
2022-08-17T17:43:05.430Z,47.85
2022-08-17T17:45:59.007Z,44.00
2022-08-17T17:48:48.340Z,43.45
2022-08-17T17:52:09.419Z,43.90
2022-08-17T17:54:41.028Z,40.67
2022-08-17T17:57:22.421Z,42.25
2022-08-17T18:00:12.106Z,42.67
2022-08-17T18:02:51.472Z,43.53
2022-08-17T18:05:46.850Z,45.17
2022-08-17T18:08:46.396Z,45.88
2022-08-17T18:11:24.219Z,45.33
2022-08-17T18:14:16.523Z,46.13
2022-08-17T18:16:45.782Z,48.05
2022-08-17T18:19:18.254Z,44.80
2022-08-17T18:21:50.665Z,46.75
2022-08-17T18:24:33.410Z,47.05
2022-08-17T18:27:08.647Z,46.45
2022-08-17T18:29:50.766Z,44.67
2022-08-17T18:32:29.735Z,46.40
2022-08-17T18:35:09.694Z,47.63
2022-08-17T18:37:58.829Z,50.05
2022-08-17T18:40:37.128Z,50.45
2022-08-17T18:43:44.113Z,52.88
2022-08-17T18:46:28.355Z,53.00
2022-08-17T18:49:25.207Z,51.13
2022-08-17T18:52:13.771Z,49.85
2022-08-17T18:54:59.580Z,47.58
2022-08-17T18:57:48.032Z,46.45
2022-08-17T19:00:20.198Z,48.40
2022-08-17T19:02:57.167Z,47.58
2022-08-17T19:05:40.017Z,46.00
2022-08-17T19:08:28.546Z,45.30
2022-08-17T19:11:20.881Z,48.45
2022-08-17T19:14:12.478Z,49.40
2022-08-17T19:16:55.858Z,48.35
2022-08-17T19:19:33.521Z,52.10
2022-08-17T19:22:13.807Z,52.83
2022-08-17T19:25:03.537Z,50.03
2022-08-17T19:27:46.426Z,49.08
2022-08-17T19:30:20.490Z,47.15
2022-08-17T19:32:48.253Z,45.80
2022-08-17T19:35:31.140Z,46.38
2022-08-17T19:38:12.970Z,44.08
2022-08-17T19:41:01.381Z,43.58
2022-08-17T19:43:53.586Z,43.20
2022-08-17T19:47:02.813Z,44.92
2022-08-17T19:50:04.971Z,45.92
2022-08-17T19:53:02.428Z,45.55
2022-08-17T19:55:48.953Z,49.50
2022-08-17T19:58:27.955Z,49.08
2022-08-17T20:00:55.801Z,48.35
2022-08-17T20:03:33.632Z,47.88
2022-08-17T20:06:14.204Z,50.13
2022-08-17T20:09:15.172Z,48.63
2022-08-17T20:11:52.634Z,47.47
2022-08-17T20:14:24.661Z,48.38
2022-08-17T20:16:53.469Z,49.15
2022-08-17T20:19:31.798Z,50.40
2022-08-17T20:22:11.854Z,48.25
2022-08-17T20:24:48.335Z,49.13
2022-08-17T20:27:17.894Z,49.78
2022-08-17T20:30:13.053Z,50.05
2022-08-17T20:32:52.269Z,49.10
2022-08-17T20:35:34.881Z,47.65
2022-08-17T20:38:11.154Z,49.92
2022-08-17T20:40:54.629Z,49.28
2022-08-17T20:43:32.983Z,47.85
2022-08-17T20:46:26.930Z,48.95
2022-08-17T20:49:00.089Z,51.55
2022-08-17T20:51:28.911Z,53.40
2022-08-17T20:53:58.419Z,54.15
2022-08-17T20:56:44.757Z,49.35
2022-08-17T20:59:22.581Z,51.25
2022-08-17T21:02:19.005Z,48.00
2022-08-17T21:04:57.060Z,53.25
2022-08-17T21:07:29.938Z,53.05
2022-08-17T21:10:17.121Z,51.92
2022-08-17T21:13:02.951Z,50.72
2022-08-17T21:15:36.037Z,51.03
2022-08-17T21:18:26.110Z,51.28
2022-08-17T21:20:59.697Z,53.22
2022-08-17T21:23:42.623Z,50.17
2022-08-17T21:26:18.260Z,50.90
2022-08-17T21:29:30.322Z,49.38
2022-08-17T21:32:09.664Z,50.22
2022-08-17T21:34:43.853Z,51.33
2022-08-17T21:37:29.877Z,51.22
2022-08-17T21:40:11.513Z,52.10
2022-08-17T21:42:48.320Z,55.53
2022-08-17T21:45:35.725Z,56.00
2022-08-17T21:48:15.074Z,53.85
2022-08-17T21:50:46.495Z,52.50
2022-08-17T21:53:32.208Z,56.13
2022-08-17T21:56:01.390Z,56.72
2022-08-17T21:58:32.660Z,64.20
2022-08-17T22:01:19.521Z,68.75
2022-08-17T22:03:58.416Z,70.68
2022-08-17T22:06:31.098Z,69.43
2022-08-17T22:09:07.608Z,62.75
2022-08-17T22:12:03.044Z,62.28
2022-08-17T22:14:51.834Z,63.25
2022-08-17T22:17:35.762Z,57.25
2022-08-17T22:20:22.055Z,58.08
2022-08-17T22:23:07.528Z,57.00
2022-08-17T22:26:00.241Z,59.38
2022-08-17T22:28:43.495Z,59.20
2022-08-17T22:31:33.080Z,60.92
2022-08-17T22:34:00.725Z,65.45
2022-08-17T22:36:31.392Z,62.42
2022-08-17T22:39:23.306Z,65.03
2022-08-17T22:41:54.951Z,62.55
2022-08-17T22:44:45.975Z,61.88
2022-08-17T22:47:17.122Z,61.65
2022-08-17T22:53:30.724Z,61.30
2022-08-17T22:56:17.057Z,62.85
2022-08-17T22:59:12.795Z,61.25
2022-08-17T23:01:42.323Z,60.10
2022-08-17T23:04:29.442Z,62.55
2022-08-17T23:06:56.919Z,62.63
2022-08-17T23:09:24.364Z,63.08
2022-08-17T23:11:55.931Z,60.70
2022-08-17T23:14:23.355Z,60.28
2022-08-17T23:16:52.454Z,60.83
2022-08-17T23:19:21.833Z,57.63
2022-08-17T23:21:53.957Z,58.35
2022-08-17T23:24:35.956Z,59.25
2022-08-17T23:27:08.533Z,58.75
2022-08-17T23:29:39.473Z,60.28
2022-08-17T23:32:08.500Z,59.47
2022-08-17T23:34:38.982Z,60.30
2022-08-17T23:37:07.789Z,62.80
2022-08-17T23:39:36.292Z,63.15
2022-08-17T23:42:10.812Z,60.97
2022-08-17T23:44:40.232Z,58.67
2022-08-17T23:47:10.903Z,57.53
2022-08-17T23:49:40.606Z,58.47
2022-08-17T23:52:14.992Z,56.80
2022-08-17T23:54:46.990Z,57.33
2022-08-17T23:57:19.426Z,57.65
2022-08-17T23:59:48.929Z,59.95
